Ashburn, Georgia
Current Conditions -  °F | °C
As of 1:55 PM on Thursday 23 Oct 2014 (Local Time) from KCKF Reporting Station
Clear Clear  
Wind Chill: 69°   Ceiling: Unl
Heat Index: 69°   Visibility: 10mi
Dew Point: 42°   Wind: 0mph
Humidity: 37%   Direction: NA
Pressure: 30.08"   Gusts: NA
Location:  31.71°N, 83.65°W
Report Text: KCKF 231755Z AUTO 00000KT 10SM CLR 21/05 A3008 RMK AO2 T02080054 10211 20067
Loading
Personal Weather Stations






























Interactive Weather Map New forecast layout! Learn more

10-Day Weather Forecast

Advertisements
Track Severe Weather on mobile